Time;durP1;ratioP1;P1;durP2;ratioP2;P2;SDS_P1;SDS_P2;PMS_P1;PMS_P2;Temp;Humidity;BMP_temperature;BMP_pressure;BME280_temperature;BME280_humidity;BME280_pressure;Samples;Min_cycle;Max_cycle;Signal;HPM_P1;HPM_P2
2020/12/05 00:00:57;;;;;;;7.78;4.75;;;;;;;6.53;73.08;99147.47;4363470;32;33408;-88
2020/12/05 00:03:24;;;;;;;3.72;3.42;;;;;;;6.45;73.31;99138.56;4363440;32;35192;-89
2020/12/05 00:05:51;;;;;;;6.10;5.40;;;;;;;6.02;74.55;99145.88;4363488;32;34520;-89
2020/12/05 00:08:19;;;;;;;5.70;3.40;;;;;;;6.76;72.16;99142.78;4342211;32;33700;-89
2020/12/05 00:10:47;;;;;;;6.50;5.32;;;;;;;6.37;73.42;99143.66;4348622;32;35415;-90
2020/12/05 00:13:15;;;;;;;4.90;4.43;;;;;;;6.28;73.90;99145.31;4373172;32;33899;-87
2020/12/05 00:15:42;;;;;;;7.50;3.53;;;;;;;6.24;73.65;99145.72;4348368;32;33656;-90
2020/12/05 00:18:09;;;;;;;6.50;4.07;;;;;;;6.31;73.39;99144.19;4360535;32;31811;-86
2020/12/05 00:20:37;;;;;;;5.77;4.50;;;;;;;6.13;74.36;99136.06;4348492;32;34813;-89
2020/12/05 00:23:04;;;;;;;12.00;6.55;;;;;;;6.29;73.55;99144.34;4347980;32;34308;-90
2020/12/05 00:25:32;;;;;;;4.20;3.62;;;;;;;6.53;72.71;99131.63;4361695;32;33441;-89
2020/12/05 00:27:59;;;;;;;12.50;5.18;;;;;;;6.10;74.16;99132.84;4348410;32;34460;-90
2020/12/05 00:30:28;;;;;;;9.43;6.25;;;;;;;6.08;74.56;99129.50;4348438;32;34848;-90
2020/12/05 00:33:03;;;;;;;10.98;4.45;;;;;;;6.09;74.16;99128.53;4348558;32;32279;-90
2020/12/05 00:35:30;;;;;;;5.97;5.07;;;;;;;6.03;74.23;99134.34;4336133;32;32848;-90
2020/12/05 00:37:58;;;;;;;5.47;5.00;;;;;;;6.38;72.99;99130.34;4348335;32;34447;-88
2020/12/05 00:40:25;;;;;;;8.07;4.90;;;;;;;6.31;73.43;99138.91;4336099;32;35630;-89
2020/12/05 00:42:52;;;;;;;5.55;3.60;;;;;;;6.38;73.18;99148.84;4336457;32;34292;-90
2020/12/05 00:45:21;;;;;;;13.80;6.55;;;;;;;6.23;73.84;99149.34;4335839;32;31891;-90
2020/12/05 00:47:48;;;;;;;7.97;4.07;;;;;;;6.16;73.90;99143.72;4347995;32;32953;-90
2020/12/05 00:50:15;;;;;;;8.48;4.82;;;;;;;6.25;73.85;99150.03;4372771;32;35131;-89
2020/12/05 00:52:43;;;;;;;7.18;6.30;;;;;;;6.12;74.27;99158.16;4348646;32;34046;-90
2020/12/05 00:55:11;;;;;;;5.68;3.00;;;;;;;6.02;74.50;99157.28;4372876;32;33165;-91
2020/12/05 00:57:38;;;;;;;6.90;3.58;;;;;;;6.39;73.23;99162.84;4372705;32;34497;-89
2020/12/05 01:00:07;;;;;;;6.30;5.68;;;;;;;6.32;72.99;99164.34;4372696;32;34668;-90
2020/12/05 01:02:34;;;;;;;12.88;7.72;;;;;;;6.36;72.65;99163.94;4347134;32;34026;-89
2020/12/05 01:05:02;;;;;;;5.07;3.60;;;;;;;6.83;71.01;99167.72;4361582;32;32233;-88
2020/12/05 01:07:30;;;;;;;5.35;3.50;;;;;;;6.52;71.81;99169.59;4372912;32;33660;-90
2020/12/05 01:09:57;;;;;;;7.40;6.15;;;;;;;6.22;73.14;99161.69;4360194;32;33565;-89
2020/12/05 01:12:27;;;;;;;8.80;4.05;;;;;;;6.45;72.33;99168.44;4371865;32;35204;-90
2020/12/05 01:15:00;;;;;;;7.53;5.60;;;;;;;6.10;73.90;99180.38;4348324;32;34200;-89
2020/12/05 01:17:28;;;;;;;10.55;7.25;;;;;;;6.31;73.11;99179.38;4348918;32;33750;-86
2020/12/05 01:19:56;;;;;;;6.75;5.10;;;;;;;6.40;72.52;99185.66;4348046;32;34178;-89
2020/12/05 01:22:24;;;;;;;8.30;3.60;;;;;;;6.49;71.98;99183.06;4347414;32;34245;-90
2020/12/05 01:24:51;;;;;;;6.93;4.30;;;;;;;6.40;72.23;99178.59;4348100;32;31453;-90
2020/12/05 01:27:18;;;;;;;;;;;;;;;6.67;71.76;99181.47;4348414;32;33513;-89
2020/12/05 01:29:45;;;;;;;8.63;4.37;;;;;;;6.36;72.88;99179.81;4348352;32;34746;-90
2020/12/05 01:32:13;;;;;;;6.43;4.90;;;;;;;6.39;72.67;99176.06;4348199;32;34073;-91
2020/12/05 01:34:40;;;;;;;10.93;5.93;;;;;;;6.29;73.00;99170.75;4348194;32;32830;-91
2020/12/05 01:37:07;;;;;;;8.25;7.47;;;;;;;6.27;73.25;99169.22;4347754;32;32996;-90
2020/12/05 01:39:35;;;;;;;6.10;4.95;;;;;;;6.50;72.43;99168.03;4347728;32;34796;-90
2020/12/05 01:42:03;;;;;;;7.28;3.35;;;;;;;6.22;73.36;99168.75;4323242;32;33640;-86
2020/12/05 01:44:31;;;;;;;13.23;4.60;;;;;;;5.94;74.59;99167.66;4335705;32;33972;-90
2020/12/05 01:47:01;;;;;;;5.10;4.37;;;;;;;6.16;74.06;99159.56;4347856;32;33644;-89
2020/12/05 01:49:29;;;;;;;5.28;4.20;;;;;;;6.17;73.71;99161.22;4335637;32;35788;-90
2020/12/05 01:51:57;;;;;;;6.28;5.10;;;;;;;6.08;74.21;99164.66;4335828;32;34271;-90
2020/12/05 01:54:24;;;;;;;6.28;4.03;;;;;;;6.38;73.12;99166.47;4335725;32;33998;-90
2020/12/05 01:57:00;;;;;;;7.78;5.37;;;;;;;6.12;74.05;99162.59;4335647;32;33430;-90
2020/12/05 01:59:27;;;;;;;10.68;4.32;;;;;;;5.98;74.87;99160.31;4335149;32;33761;-90
2020/12/05 02:02:03;;;;;;;5.28;4.10;;;;;;;5.93;74.94;99165.13;4347710;32;33691;-87
2020/12/05 02:04:57;;;;;;;6.10;3.97;;;;;;;6.12;74.26;99160.81;4335331;32;32847;-88
2020/12/05 02:07:39;;;;;;;8.80;4.03;;;;;;;6.36;73.26;99156.03;4336247;32;32419;-90
2020/12/05 02:10:09;;;;;;;5.87;3.83;;;;;;;5.96;74.45;99165.72;4347659;32;34536;-90
2020/12/05 02:12:54;;;;;;;6.57;5.45;;;;;;;6.27;73.69;99164.78;4361404;32;33927;-88
2020/12/05 02:15:28;;;;;;;5.45;3.55;;;;;;;6.18;73.99;99173.50;4361832;32;33386;-87
2020/12/05 02:18:06;;;;;;;4.35;3.95;;;;;;;5.99;74.84;99165.47;4373448;32;32416;-90
2020/12/05 02:20:34;;;;;;;;;;;;;;;5.87;75.50;99166.50;4361519;32;34041;-90
2020/12/05 02:23:15;;;;;;;4.10;3.72;;;;;;;6.07;74.72;99162.16;4373823;32;34415;-90
2020/12/05 02:25:55;;;;;;;6.30;3.83;;;;;;;6.19;73.98;99164.59;4361589;32;32880;-89
2020/12/05 02:28:23;;;;;;;7.05;3.55;;;;;;;6.28;73.76;99176.16;4361819;32;33136;-89
2020/12/05 02:30:51;;;;;;;3.97;3.65;;;;;;;5.71;75.74;99174.00;4361471;32;34981;-90
2020/12/05 02:33:18;;;;;;;7.95;5.47;;;;;;;6.07;74.66;99163.00;4373643;32;33089;-89
2020/12/05 02:35:45;;;;;;;3.53;2.80;;;;;;;6.08;74.48;99164.66;4349262;32;33768;-89
2020/12/05 02:38:26;;;;;;;8.75;5.78;;;;;;;6.09;74.60;99173.44;4349215;32;33697;-90
2020/12/05 02:40:56;;;;;;;4.28;3.70;;;;;;;6.40;73.12;99162.72;4349428;32;34493;-90
2020/12/05 02:43:24;;;;;;;5.55;4.25;;;;;;;6.56;72.53;99172.78;4337090;32;34271;-90
2020/12/05 02:45:53;;;;;;;12.45;6.30;;;;;;;6.69;71.66;99176.88;4337090;32;33323;-89
2020/12/05 02:48:21;;;;;;;9.52;4.93;;;;;;;6.58;72.39;99173.50;4349238;32;33632;-90
2020/12/05 02:50:48;;;;;;;5.30;4.50;;;;;;;6.59;72.08;99181.28;4349071;32;35745;-89
2020/12/05 02:53:15;;;;;;;4.20;3.45;;;;;;;6.37;72.74;99185.94;4362404;32;33164;-90
2020/12/05 02:55:42;;;;;;;5.67;5.23;;;;;;;6.16;73.96;99182.50;4349091;32;33300;-90
2020/12/05 02:58:10;;;;;;;5.28;3.85;;;;;;;6.04;74.30;99184.38;4349128;32;34358;-90
2020/12/05 03:00:37;;;;;;;9.07;4.72;;;;;;;6.23;73.87;99186.31;4349225;32;35666;-90
2020/12/05 03:03:04;;;;;;;4.57;4.13;;;;;;;5.91;75.27;99183.78;4362663;32;34299;-90
2020/12/05 03:05:31;;;;;;;6.28;3.87;;;;;;;6.22;74.04;99184.59;4348995;32;33362;-90
2020/12/05 03:07:59;;;;;;;8.07;5.73;;;;;;;6.06;74.17;99186.91;4349341;32;34427;-90
2020/12/05 03:10:26;;;;;;;5.03;4.00;;;;;;;6.30;73.54;99192.72;4358823;32;35560;-88
2020/12/05 03:12:54;;;;;;;5.07;4.57;;;;;;;6.45;73.47;99197.50;4363832;32;34839;-90
2020/12/05 03:15:21;;;;;;;11.00;6.15;;;;;;;6.16;74.86;99203.63;4363756;32;33426;-89
2020/12/05 03:17:48;;;;;;;7.57;6.10;;;;;;;5.88;76.06;99202.47;4363708;32;33345;-90
2020/12/05 03:20:16;;;;;;;10.85;5.37;;;;;;;6.36;74.57;99193.00;4363568;32;33522;-88
2020/12/05 03:22:43;;;;;;;7.00;5.43;;;;;;;6.34;74.84;99189.66;4363707;32;34182;-90
2020/12/05 03:25:11;;;;;;;6.23;3.77;;;;;;;6.18;75.50;99191.97;4363383;32;33103;-90
2020/12/05 03:27:38;;;;;;;18.35;5.85;;;;;;;6.02;76.06;99188.97;4363794;32;33622;-89
2020/12/05 03:30:06;;;;;;;7.45;4.95;;;;;;;6.34;75.07;99189.66;4351291;32;33597;-90
2020/12/05 03:32:33;;;;;;;7.50;5.13;;;;;;;6.39;74.91;99203.34;4351617;32;35169;-88
2020/12/05 03:35:00;;;;;;;3.90;3.22;;;;;;;6.28;75.48;99194.66;4351182;32;33134;-89
2020/12/05 03:37:29;;;;;;;;;;;;;;;6.40;75.00;99196.22;4372799;32;33776;-88
2020/12/05 03:39:56;;;;;;;2.87;2.67;;;;;;;6.25;75.44;99192.28;4373357;32;33845;-91
2020/12/05 03:42:23;;;;;;;7.95;6.30;;;;;;;6.30;75.31;99190.91;4373258;32;35095;-90
2020/12/05 03:44:50;;;;;;;4.12;3.72;;;;;;;6.54;74.42;99196.69;4348922;32;34290;-89
2020/12/05 03:47:17;;;;;;;4.43;4.13;;;;;;;6.49;74.59;99198.06;4348799;32;33816;-90
2020/12/05 03:49:45;;;;;;;10.63;3.87;;;;;;;6.59;74.01;99196.31;4348477;32;34281;-90
2020/12/05 03:52:12;;;;;;;7.40;4.32;;;;;;;6.28;75.35;99205.22;4348614;32;35201;-90
2020/12/05 03:54:39;;;;;;;7.07;5.78;;;;;;;6.27;75.59;99198.25;4348382;32;31589;-90
2020/12/05 03:57:07;;;;;;;7.15;5.25;;;;;;;6.56;74.57;99189.50;4348853;32;33480;-90
2020/12/05 03:59:34;;;;;;;5.93;4.77;;;;;;;6.55;74.60;99189.62;4373400;32;34756;-90
2020/12/05 04:02:01;;;;;;;5.37;2.87;;;;;;;6.49;74.70;99190.16;4348574;32;34401;-91
2020/12/05 04:04:28;;;;;;;9.75;6.00;;;;;;;6.53;74.24;99195.03;4348903;32;32727;-88
2020/12/05 04:06:57;;;;;;;7.28;5.93;;;;;;;6.15;75.98;99186.94;4372788;32;34098;-89
2020/12/05 04:09:24;;;;;;;3.63;3.33;;;;;;;6.28;75.62;99184.09;4348575;32;35853;-88
2020/12/05 04:11:51;;;;;;;7.30;4.95;;;;;;;6.47;74.91;99192.09;4348509;32;34890;-89
2020/12/05 04:14:18;;;;;;;3.92;3.50;;;;;;;6.25;75.66;99201.03;4336113;32;34194;-90
2020/12/05 04:16:45;;;;;;;5.73;4.37;;;;;;;6.36;75.17;99189.56;4348296;32;34176;-89
2020/12/05 04:19:13;;;;;;;5.05;4.60;;;;;;;6.36;75.14;99190.38;4333849;33;34747;-89
2020/12/05 04:21:40;;;;;;;5.72;4.87;;;;;;;6.53;74.38;99200.31;4321379;33;32690;-90
2020/12/05 04:24:07;;;;;;;9.80;6.12;;;;;;;6.52;74.41;99200.47;4347021;33;34067;-86
2020/12/05 04:26:35;;;;;;;10.50;6.30;;;;;;;6.43;74.82;99203.91;4339602;33;33723;-89
2020/12/05 04:29:03;;;;;;;3.62;3.10;;;;;;;6.64;73.98;99209.97;4346020;33;35748;-89
2020/12/05 04:31:30;;;;;;;6.18;4.10;;;;;;;6.26;75.11;99213.25;4333702;33;35079;-90
2020/12/05 04:33:58;;;;;;;5.60;3.95;;;;;;;6.47;74.51;99203.50;4345500;33;32854;-90
2020/12/05 04:36:25;;;;;;;9.60;7.13;;;;;;;6.30;74.99;99201.47;4347941;32;34102;-88
2020/12/05 04:38:53;;;;;;;7.15;5.68;;;;;;;6.56;74.33;99215.06;4336078;32;34479;-90
2020/12/05 04:41:20;;;;;;;10.82;5.70;;;;;;;6.52;74.16;99211.03;4336242;32;34265;-90
2020/12/05 04:43:47;;;;;;;6.10;4.83;;;;;;;6.52;74.28;99218.97;4348238;32;32327;-89
2020/12/05 04:46:16;;;;;;;8.63;4.78;;;;;;;6.65;73.87;99227.50;4348094;32;33426;-88
2020/12/05 04:48:44;;;;;;;8.60;6.12;;;;;;;6.69;73.72;99227.09;4323642;32;33255;-89
2020/12/05 04:51:20;;;;;;;7.78;3.75;;;;;;;6.60;73.88;99225.25;4348259;32;34904;-88
2020/12/05 04:53:48;;;;;;;7.37;4.32;;;;;;;6.66;73.66;99230.00;4336860;32;33174;-87
2020/12/05 04:56:16;;;;;;;5.68;5.05;;;;;;;6.44;74.27;99224.88;4336108;32;34447;-90
2020/12/05 04:58:48;;;;;;;7.05;4.35;;;;;;;6.53;73.88;99224.09;4360105;32;34149;-89
2020/12/05 05:01:17;;;;;;;7.45;3.95;;;;;;;6.19;75.17;99237.69;4372982;32;34495;-88
2020/12/05 05:03:44;;;;;;;11.38;5.37;;;;;;;6.39;74.25;99234.19;4348467;32;33379;-89
2020/12/05 05:06:19;;;;;;;8.75;5.28;;;;;;;6.52;73.63;99233.00;4347849;32;32817;-90
2020/12/05 05:08:48;;;;;;;6.00;5.50;;;;;;;6.27;74.55;99240.53;4360616;32;33459;-90
2020/12/05 05:11:18;;;;;;;5.97;3.85;;;;;;;6.31;74.47;99239.28;4348203;32;34525;-90
2020/12/05 05:14:19;;;;;;;7.43;4.87;;;;;;;6.27;74.40;99246.66;4372408;32;32724;-90
2020/12/05 05:16:46;;;;;;;7.03;4.45;;;;;;;6.24;74.42;99251.38;4347792;32;32898;-90
2020/12/05 05:19:22;;;;;;;10.57;6.05;;;;;;;6.25;74.35;99253.03;4372758;32;35538;-89
2020/12/05 05:21:50;;;;;;;5.62;5.12;;;;;;;6.34;73.78;99254.91;4347290;32;33331;-90
2020/12/05 05:24:20;;;;;;;6.95;3.90;;;;;;;6.28;73.92;99261.53;4360031;32;32246;-90
2020/12/05 05:26:59;;;;;;;4.18;3.70;;;;;;;6.67;72.44;99266.03;4357312;32;35133;-89
2020/12/05 05:29:32;;;;;;;8.98;5.87;;;;;;;6.65;72.35;99260.06;4359119;32;33682;-86
2020/12/05 05:32:15;;;;;;;6.22;3.55;;;;;;;6.48;73.33;99257.19;4348139;32;34164;-89
2020/12/05 05:34:43;;;;;;;4.12;3.83;;;;;;;6.27;73.89;99256.38;4349610;32;33766;-87
2020/12/05 05:37:14;;;;;;;9.27;5.62;;;;;;;6.00;75.03;99256.06;4335619;32;33858;-90
2020/12/05 05:39:50;;;;;;;9.73;5.50;;;;;;;6.02;75.06;99254.97;4335522;32;34336;-90
2020/12/05 05:42:31;;;;;;;5.40;3.75;;;;;;;6.03;74.84;99253.16;4335485;32;32551;-88
2020/12/05 05:45:37;;;;;;;8.70;4.82;;;;;;;5.93;75.51;99257.53;4335475;32;33841;-88
2020/12/05 05:48:05;;;;;;;8.57;5.40;;;;;;;6.00;75.36;99272.75;4301901;33;32458;-91
2020/12/05 05:50:33;;;;;;;2.33;2.13;;;;;;;5.93;75.71;99278.66;4302677;33;35480;-87
2020/12/05 05:53:11;;;;;;;9.23;6.32;;;;;;;5.96;75.27;99281.06;4332335;32;34344;-89
2020/12/05 05:55:44;;;;;;;5.97;5.37;;;;;;;6.28;74.08;99284.47;4347467;32;33952;-89
2020/12/05 05:58:11;;;;;;;6.22;4.57;;;;;;;5.74;75.73;99291.66;4359216;32;32052;-89
2020/12/05 06:00:44;;;;;;;4.72;4.35;;;;;;;6.04;75.05;99295.28;4347488;32;33773;-90
2020/12/05 06:03:27;;;;;;;10.50;5.43;;;;;;;5.75;76.10;99303.91;4359908;32;34018;-90
2020/12/05 06:05:56;;;;;;;5.57;4.03;;;;;;;5.87;75.80;99308.22;4347633;32;33161;-89
2020/12/05 06:08:26;;;;;;;4.87;4.37;;;;;;;5.76;76.21;99302.94;4347654;32;33473;-90
2020/12/05 06:10:59;;;;;;;10.10;6.60;;;;;;;5.81;75.95;99304.28;4347287;32;34331;-90
2020/12/05 06:13:29;;;;;;;5.28;3.83;;;;;;;5.74;76.60;99307.50;4347374;32;32853;-89
2020/12/05 06:15:58;;;;;;;10.63;4.35;;;;;;;5.89;75.86;99303.66;4372105;32;33018;-89
2020/12/05 06:18:26;;;;;;;4.57;4.20;;;;;;;5.87;75.47;99306.41;4347326;32;32688;-90
2020/12/05 06:20:53;;;;;;;;;;;;;;;5.80;76.35;99315.78;4346552;32;34708;-87
2020/12/05 06:23:41;;;;;;;7.37;3.80;;;;;;;6.02;75.56;99313.06;4372150;32;34489;-89
2020/12/05 06:26:12;;;;;;;8.15;6.00;;;;;;;6.00;75.50;99312.34;4356269;32;31962;-90
2020/12/05 06:28:43;;;;;;;6.60;4.57;;;;;;;5.96;75.64;99308.28;4320324;33;32046;-89
2020/12/05 06:31:15;;;;;;;5.37;4.32;;;;;;;5.96;75.74;99318.03;4332917;33;34807;-90
2020/12/05 06:33:44;;;;;;;10.97;6.13;;;;;;;5.95;75.86;99317.16;4332525;33;34222;-89
2020/12/05 06:36:27;;;;;;;7.18;5.50;;;;;;;5.89;75.91;99315.03;4356347;32;32889;-90
2020/12/05 06:39:05;;;;;;;6.43;5.22;;;;;;;5.83;76.25;99325.25;4356365;32;33578;-89
2020/12/05 06:41:38;;;;;;;6.47;3.65;;;;;;;5.96;76.11;99326.75;4331830;33;34261;-89
2020/12/05 06:44:12;;;;;;;9.23;5.43;;;;;;;6.04;75.88;99326.12;4332014;33;33512;-89
2020/12/05 06:46:52;;;;;;;7.22;4.53;;;;;;;5.77;76.75;99326.56;4331811;33;31835;-89
2020/12/05 06:49:35;;;;;;;5.65;5.18;;;;;;;5.87;76.73;99313.50;4356342;32;33743;-90
2020/12/05 06:52:21;;;;;;;4.87;4.50;;;;;;;5.93;76.45;99320.88;4356381;32;35653;-90
2020/12/05 06:54:56;;;;;;;5.28;4.28;;;;;;;6.03;75.85;99322.66;4357566;32;34183;-89
2020/12/05 06:57:27;;;;;;;4.75;4.35;;;;;;;6.19;75.40;99341.53;4358681;32;34670;-88
2020/12/05 07:00:11;;;;;;;5.10;4.70;;;;;;;6.24;75.18;99338.53;4336380;32;33845;-89
2020/12/05 07:02:48;;;;;;;10.02;3.58;;;;;;;6.43;74.26;99350.03;4333806;33;34729;-89
2020/12/05 07:05:16;;;;;;;6.75;4.25;;;;;;;5.92;76.38;99345.63;4358143;32;34209;-90
2020/12/05 07:07:53;;;;;;;4.15;3.95;;;;;;;5.99;76.32;99344.16;4346273;33;34343;-87
2020/12/05 07:10:42;;;;;;;6.97;5.18;;;;;;;6.07;75.92;99350.47;4358446;32;33638;-89
2020/12/05 07:13:21;;;;;;;5.50;4.85;;;;;;;6.18;75.61;99344.31;4334186;33;35065;-88
2020/12/05 07:15:49;;;;;;;4.80;4.32;;;;;;;6.13;75.95;99349.12;4346065;33;32818;-90
2020/12/05 07:18:25;;;;;;;5.30;4.87;;;;;;;5.90;77.07;99342.28;4368194;32;32954;-89
2020/12/05 07:20:54;;;;;;;5.03;4.35;;;;;;;5.93;76.79;99355.22;4360548;32;34403;-89
2020/12/05 07:23:22;;;;;;;4.25;3.87;;;;;;;6.07;76.27;99354.94;4360373;32;34947;-89
2020/12/05 07:25:50;;;;;;;;;;;;;;;5.96;76.47;99341.78;4325679;32;32515;-89
2020/12/05 07:28:17;;;;;;;7.25;4.90;;;;;;;6.23;76.03;99342.97;4347501;32;33942;-91
2020/12/05 07:30:44;;;;;;;7.85;4.57;;;;;;;6.31;75.76;99342.31;4348458;32;33675;-90
2020/12/05 07:33:13;;;;;;;6.07;4.87;;;;;;;6.38;75.72;99351.41;4348563;32;34624;-89
2020/12/05 07:35:41;;;;;;;7.47;4.40;;;;;;;6.02;77.39;99351.81;4335623;32;33204;-90
2020/12/05 07:38:14;;;;;;;8.07;5.13;;;;;;;6.29;76.45;99347.75;4335952;32;32852;-90
2020/12/05 07:40:42;;;;;;;7.10;5.72;;;;;;;6.63;75.21;99356.28;4335432;32;34133;-90
2020/12/05 07:43:18;;;;;;;10.57;7.30;;;;;;;6.36;76.56;99350.69;4335527;32;34838;-90
2020/12/05 07:45:51;;;;;;;8.93;7.12;;;;;;;6.67;75.65;99352.41;4338430;32;35049;-90
2020/12/05 07:48:20;;;;;;;7.65;6.07;;;;;;;7.04;74.19;99348.28;4362862;32;34876;-89
2020/12/05 07:50:48;;;;;;;9.73;7.10;;;;;;;7.07;73.97;99351.50;4346035;32;33237;-87
2020/12/05 07:53:27;;;;;;;10.27;6.32;;;;;;;6.72;75.28;99356.34;4367001;32;35083;-89
2020/12/05 07:55:56;;;;;;;4.00;3.37;;;;;;;6.74;75.48;99346.50;4350145;32;34030;-89
2020/12/05 07:58:23;;;;;;;7.97;6.93;;;;;;;7.05;74.41;99347.31;4345970;32;33379;-87
2020/12/05 08:00:54;;;;;;;7.28;5.45;;;;;;;7.08;74.31;99355.00;4346062;32;33577;-90
2020/12/05 08:03:30;;;;;;;9.55;6.62;;;;;;;7.09;74.54;99362.78;4334660;32;34893;-89
2020/12/05 08:06:02;;;;;;;7.00;6.30;;;;;;;6.99;74.97;99355.78;4361182;32;34313;-90
2020/12/05 08:08:29;;;;;;;7.05;5.45;;;;;;;7.11;74.54;99368.81;4338547;33;33191;-89
2020/12/05 08:11:01;;;;;;;10.60;6.60;;;;;;;7.17;74.55;99368.25;4338536;32;33592;-89
2020/12/05 08:13:30;;;;;;;8.90;6.93;;;;;;;7.49;73.30;99374.22;4349544;32;34362;-91
2020/12/05 08:16:01;;;;;;;8.32;7.00;;;;;;;7.49;73.32;99379.53;4322925;32;33992;-91
2020/12/05 08:18:30;;;;;;;6.80;5.53;;;;;;;7.37;74.02;99375.28;4347113;32;33144;-89
2020/12/05 08:21:00;;;;;;;7.43;6.72;;;;;;;7.69;72.78;99373.28;4348013;32;33263;-89
2020/12/05 08:23:32;;;;;;;5.05;3.22;;;;;;;7.65;72.87;99369.22;4346275;32;35075;-88
2020/12/05 08:26:09;;;;;;;6.78;5.00;;;;;;;7.68;72.96;99373.41;4335158;32;34332;-88
2020/12/05 08:28:39;;;;;;;4.43;4.03;;;;;;;7.92;72.57;99366.75;4335077;32;31605;-91
2020/12/05 08:31:08;;;;;;;7.80;4.80;;;;;;;7.95;72.43;99374.44;4333768;32;34590;-91
2020/12/05 08:33:49;;;;;;;8.98;5.37;;;;;;;8.18;71.77;99372.34;4300906;32;35903;-87
2020/12/05 08:36:26;;;;;;;4.60;3.85;;;;;;;8.10;72.24;99366.94;4345478;32;36497;-90
2020/12/05 08:38:58;;;;;;;5.43;4.43;;;;;;;8.09;72.74;99375.84;4345828;32;32939;-91
2020/12/05 08:41:26;;;;;;;7.20;4.50;;;;;;;8.37;71.23;99372.41;4333938;32;36041;-91
2020/12/05 08:43:54;;;;;;;4.07;3.30;;;;;;;8.40;70.92;99375.56;4333476;32;33060;-90
2020/12/05 08:46:25;;;;;;;3.85;2.70;;;;;;;8.36;71.10;99370.69;4334346;32;34307;-90
2020/12/05 08:48:53;;;;;;;9.43;5.07;;;;;;;8.33;71.56;99378.94;4333864;32;32364;-89
2020/12/05 08:51:28;;;;;;;7.70;4.07;;;;;;;8.57;70.51;99375.72;4343722;32;33576;-91
2020/12/05 08:54:06;;;;;;;10.27;5.37;;;;;;;8.71;69.89;99372.59;4342869;32;34826;-90
2020/12/05 08:56:33;;;;;;;9.40;5.00;;;;;;;8.77;70.27;99385.31;4333818;32;33994;-88
2020/12/05 08:59:01;;;;;;;8.40;5.37;;;;;;;8.85;69.44;99388.09;4345894;32;34004;-88
2020/12/05 09:01:55;;;;;;;9.73;4.55;;;;;;;8.89;70.04;99389.47;4359190;32;34348;-88
2020/12/05 09:04:30;;;;;;;5.70;5.15;;;;;;;9.27;68.46;99377.91;4353413;32;35722;-91
2020/12/05 09:07:19;;;;;;;9.07;4.68;;;;;;;9.40;67.62;99387.19;4346562;32;34363;-89
2020/12/05 09:09:48;;;;;;;8.63;5.20;;;;;;;8.98;69.02;99398.37;4342965;32;34071;-89
2020/12/05 09:12:17;;;;;;;4.12;3.05;;;;;;;8.99;68.99;99395.56;4345757;32;32388;-88
2020/12/05 09:14:50;;;;;;;5.18;3.53;;;;;;;9.05;68.93;99394.16;4345322;32;33134;-90
2020/12/05 09:17:20;;;;;;;5.78;4.15;;;;;;;9.26;69.07;99389.50;4346145;32;34518;-92
2020/12/05 09:19:50;;;;;;;4.82;3.87;;;;;;;9.20;68.58;99375.00;4345671;32;31328;-91
2020/12/05 09:22:32;;;;;;;4.12;3.67;;;;;;;9.28;68.67;99372.41;4344343;32;32257;-91
2020/12/05 09:25:03;;;;;;;6.03;4.82;;;;;;;9.39;67.95;99369.59;4346224;32;35559;-90
2020/12/05 09:27:41;;;;;;;4.72;3.95;;;;;;;9.32;68.76;99375.63;4370276;32;34153;-88
2020/12/05 09:30:11;;;;;;;5.28;4.40;;;;;;;9.51;67.91;99370.22;4344237;32;31391;-90
2020/12/05 09:32:42;;;;;;;6.62;4.65;;;;;;;9.87;66.99;99367.50;4357435;32;32874;-90
2020/12/05 09:35:22;;;;;;;5.55;4.70;;;;;;;10.12;66.15;99379.25;4345357;32;33628;-88
2020/12/05 09:38:02;;;;;;;7.85;3.78;;;;;;;10.07;65.64;99382.34;4357519;32;33886;-90
2020/12/05 09:40:36;;;;;;;9.23;4.70;;;;;;;10.20;65.57;99379.31;4345075;32;32525;-92
2020/12/05 09:43:05;;;;;;;7.07;4.90;;;;;;;10.05;65.74;99375.50;4357142;32;33699;-90
2020/12/05 09:45:33;;;;;;;5.18;3.17;;;;;;;10.07;66.10;99376.19;4345040;32;33313;-89
2020/12/05 09:48:04;;;;;;;7.25;5.60;;;;;;;9.95;66.03;99372.91;4333142;32;34196;-91
2020/12/05 09:50:32;;;;;;;6.28;4.78;;;;;;;10.16;65.73;99368.16;4359538;32;34017;-90
2020/12/05 09:53:00;;;;;;;7.20;6.40;;;;;;;9.94;66.06;99367.72;4359700;32;33661;-87
2020/12/05 09:55:27;;;;;;;6.80;2.90;;;;;;;9.95;66.47;99369.41;4357255;32;33604;-90
2020/12/05 09:57:55;;;;;;;6.87;5.18;;;;;;;9.95;66.43;99378.22;4357550;32;34126;-88
2020/12/05 10:00:29;;;;;;;7.68;4.53;;;;;;;10.34;65.13;99387.59;4358823;32;32728;-90
2020/12/05 10:03:00;;;;;;;10.32;6.72;;;;;;;9.98;66.62;99380.56;4334998;32;32945;-88
2020/12/05 10:05:28;;;;;;;5.53;3.30;;;;;;;10.23;65.79;99377.19;4343064;32;34881;-90
2020/12/05 10:07:57;;;;;;;4.95;4.25;;;;;;;10.23;65.59;99377.19;4346683;32;35191;-88
2020/12/05 10:10:25;;;;;;;4.60;3.55;;;;;;;10.20;65.67;99372.16;4357394;32;32925;-89
2020/12/05 10:12:54;;;;;;;3.62;3.20;;;;;;;10.09;66.25;99368.91;4344943;32;32407;-90
2020/12/05 10:15:23;;;;;;;6.28;4.15;;;;;;;10.14;66.15;99363.97;4344855;32;34349;-87
2020/12/05 10:17:51;;;;;;;5.80;5.30;;;;;;;10.57;64.76;99372.00;4354369;32;35193;-88
2020/12/05 10:20:19;;;;;;;6.10;4.37;;;;;;;10.54;64.75;99370.47;4357981;32;33421;-87
2020/12/05 10:22:47;;;;;;;7.50;5.22;;;;;;;10.40;65.39;99381.66;4359079;32;33659;-86
2020/12/05 10:25:16;;;;;;;6.57;3.50;;;;;;;10.53;64.69;99375.94;4345949;32;35478;-88
2020/12/05 10:27:43;;;;;;;;;;;;;;;10.59;64.65;99370.84;4370761;32;34395;-88
2020/12/05 10:30:11;;;;;;;5.62;4.07;;;;;;;10.60;65.06;99366.38;4358133;32;33057;-88
2020/12/05 10:32:40;;;;;;;6.60;6.00;;;;;;;10.87;64.47;99363.56;4370406;32;32931;-88
2020/12/05 10:35:09;;;;;;;8.88;5.07;;;;;;;10.88;64.14;99360.75;4333481;32;34586;-88
2020/12/05 10:37:37;;;;;;;7.37;4.05;;;;;;;10.94;63.68;99357.44;4355539;32;33249;-88
2020/12/05 10:40:05;;;;;;;6.72;4.45;;;;;;;10.98;63.75;99363.28;4360874;32;32202;-88
2020/12/05 10:42:34;;;;;;;7.70;4.22;;;;;;;11.09;63.88;99363.03;4360368;32;33858;-87
2020/12/05 10:45:02;;;;;;;;;;;;;;;11.24;62.79;99356.94;4360380;32;34744;-87
2020/12/05 10:47:29;;;;;;;8.15;3.55;;;;;;;11.22;63.04;99360.78;4372535;32;34421;-88
2020/12/05 10:49:57;;;;;;;6.30;5.43;;;;;;;11.34;62.60;99358.50;4341555;32;34283;-87
2020/12/05 10:52:26;;;;;;;9.00;4.57;;;;;;;11.28;62.58;99358.31;4341172;32;32055;-87
2020/12/05 10:54:55;;;;;;;8.88;5.00;;;;;;;11.14;63.44;99363.41;4336000;32;34844;-87
2020/12/05 10:57:23;;;;;;;6.90;5.70;;;;;;;11.18;63.17;99352.28;4352880;32;34426;-88
2020/12/05 10:59:53;;;;;;;8.75;3.42;;;;;;;11.14;63.42;99353.56;4350339;32;33580;-87
2020/12/05 11:02:22;;;;;;;8.90;5.55;;;;;;;11.47;62.58;99350.91;4357492;32;33502;-87
2020/12/05 11:04:49;;;;;;;;;;;;;;;11.43;62.71;99346.03;4347723;32;35044;-88
2020/12/05 11:07:17;;;;;;;10.35;4.85;;;;;;;11.46;62.29;99348.41;4346659;32;34341;-87
2020/12/05 11:09:46;;;;;;;8.05;3.92;;;;;;;11.75;62.60;99344.34;4335006;32;32960;-87
2020/12/05 11:12:15;;;;;;;5.22;4.22;;;;;;;11.79;61.94;99347.53;4341599;32;34811;-87
2020/12/05 11:14:44;;;;;;;8.15;4.62;;;;;;;11.71;61.42;99326.22;4333349;32;34958;-87
2020/12/05 11:17:13;;;;;;;8.18;5.78;;;;;;;11.66;61.71;99345.37;4334658;32;33701;-88
2020/12/05 11:19:44;;;;;;;8.30;6.95;;;;;;;11.41;62.08;99340.06;4334403;32;32128;-87
2020/12/05 11:22:13;;;;;;;10.73;5.65;;;;;;;11.36;62.60;99347.69;4344505;32;34240;-88
2020/12/05 11:24:42;;;;;;;7.97;4.85;;;;;;;11.44;62.28;99345.09;4322598;32;35211;-88
2020/12/05 11:27:10;;;;;;;7.40;5.72;;;;;;;11.32;62.87;99341.00;4346623;32;33622;-87
2020/12/05 11:29:39;;;;;;;6.53;4.57;;;;;;;11.30;62.70;99340.34;4339827;32;32744;-88
2020/12/05 11:32:08;;;;;;;5.07;4.00;;;;;;;11.28;62.88;99342.34;4345942;32;33029;-88
2020/12/05 11:34:36;;;;;;;6.60;4.60;;;;;;;11.11;63.61;99340.59;4343932;32;35821;-89
2020/12/05 11:37:05;;;;;;;5.03;3.83;;;;;;;11.16;63.57;99340.97;4346447;32;35444;-87
2020/12/05 11:39:34;;;;;;;7.85;5.82;;;;;;;11.10;63.39;99341.59;4348916;32;33291;-88
2020/12/05 11:42:09;;;;;;;10.35;4.78;;;;;;;11.29;63.09;99357.31;4359175;32;33591;-88
2020/12/05 11:44:38;;;;;;;4.78;3.30;;;;;;;11.26;63.22;99348.81;4359586;32;34808;-88
2020/12/05 11:47:06;;;;;;;;;;;;;;;11.16;63.42;99345.44;4347066;32;34018;-88
2020/12/05 11:49:34;;;;;;;6.55;3.62;;;;;;;11.35;63.22;99348.69;4335100;32;32168;-87
2020/12/05 11:52:03;;;;;;;9.65;5.45;;;;;;;11.41;62.90;99356.88;4333818;32;32168;-89
2020/12/05 11:54:31;;;;;;;7.65;4.90;;;;;;;11.50;62.42;99344.41;4322733;32;34847;-89
2020/12/05 11:57:01;;;;;;;8.43;4.87;;;;;;;11.48;63.50;99346.41;4318896;32;32729;-89